createdAt,value
2018-06-04T00:00:01.496Z,44.30
2018-06-04T00:02:29.898Z,41.83
2018-06-04T00:04:58.368Z,39.92
2018-06-04T00:07:26.767Z,39.63
2018-06-04T00:09:57.759Z,40.17
2018-06-04T00:12:26.184Z,42.27
2018-06-04T00:14:54.643Z,40.98
2018-06-04T00:17:23.054Z,42.33
2018-06-04T00:19:51.476Z,41.45
2018-06-04T00:22:20.003Z,40.45
2018-06-04T00:24:48.438Z,49.48
2018-06-04T00:27:16.867Z,46.98
2018-06-04T00:29:45.364Z,46.00
2018-06-04T00:32:13.827Z,41.83
2018-06-04T00:34:42.251Z,41.65
2018-06-04T00:37:10.682Z,47.58
2018-06-04T00:39:39.095Z,44.55
2018-06-04T00:42:07.494Z,47.35
2018-06-04T00:44:36.553Z,48.33
2018-06-04T00:47:05.154Z,44.45
2018-06-04T00:49:33.567Z,44.83
2018-06-04T00:52:01.968Z,44.77
2018-06-04T00:54:30.724Z,40.70
2018-06-04T00:56:59.152Z,40.25
2018-06-04T00:59:27.626Z,41.05
2018-06-04T01:01:56.046Z,41.63
2018-06-04T01:04:24.444Z,46.35
2018-06-04T01:06:52.940Z,46.63
2018-06-04T01:09:21.375Z,44.67
2018-06-04T01:11:49.782Z,40.90
2018-06-04T01:14:18.202Z,44.25
2018-06-04T01:16:46.613Z,43.48
2018-06-04T01:19:15.027Z,37.83
2018-06-04T01:21:43.440Z,40.35
2018-06-04T01:24:11.933Z,38.40
2018-06-04T01:26:40.336Z,37.78
2018-06-04T01:29:08.744Z,38.92
2018-06-04T01:31:37.176Z,37.80
2018-06-04T01:34:05.600Z,38.80
2018-06-04T01:36:34.018Z,36.68
2018-06-04T01:39:02.487Z,40.95
2018-06-04T01:41:30.942Z,41.95
2018-06-04T01:43:59.335Z,42.88
2018-06-04T01:46:27.733Z,47.13
2018-06-04T01:48:56.143Z,46.42
2018-06-04T01:51:24.554Z,49.95
2018-06-04T01:53:52.963Z,51.23
2018-06-04T01:56:21.362Z,52.35
2018-06-04T01:58:49.747Z,48.60
2018-06-04T02:01:18.166Z,52.93
2018-06-04T02:03:46.604Z,56.35
2018-06-04T02:06:15.022Z,54.18
2018-06-04T02:08:43.441Z,47.93
2018-06-04T02:11:11.851Z,51.15
2018-06-04T02:13:40.262Z,48.90
2018-06-04T02:16:08.686Z,50.60
2018-06-04T02:18:37.100Z,51.70
2018-06-04T02:21:05.531Z,49.65
2018-06-04T02:23:33.981Z,49.50
2018-06-04T02:26:02.377Z,49.08
2018-06-04T02:28:30.819Z,49.80
2018-06-04T02:30:59.223Z,51.33
2018-06-04T02:33:27.635Z,49.88
2018-06-04T02:35:56.047Z,59.60
2018-06-04T02:38:24.475Z,57.33
2018-06-04T02:40:53.100Z,59.00
2018-06-04T02:43:21.517Z,56.98
2018-06-04T02:45:49.919Z,51.28
2018-06-04T02:48:18.358Z,59.55
2018-06-04T02:50:46.770Z,60.03
2018-06-04T02:53:15.187Z,59.60
2018-06-04T02:55:43.596Z,54.30
2018-06-04T02:58:12.060Z,52.10
2018-06-04T03:00:40.467Z,52.98
2018-06-04T03:03:08.860Z,54.03
2018-06-04T03:05:37.278Z,62.45
2018-06-04T03:08:05.691Z,59.60
2018-06-04T03:10:34.111Z,57.73
2018-06-04T03:13:02.535Z,54.35
2018-06-04T03:15:30.940Z,56.18
2018-06-04T03:17:59.358Z,62.60
2018-06-04T03:20:27.770Z,59.50
2018-06-04T03:22:56.248Z,59.95
2018-06-04T03:25:24.660Z,65.67
2018-06-04T03:27:53.062Z,57.70
2018-06-04T03:30:21.242Z,55.43
2018-06-04T03:32:49.659Z,48.40
2018-06-04T03:35:18.072Z,53.40
2018-06-04T03:37:46.517Z,51.18
2018-06-04T03:40:14.914Z,48.92
2018-06-04T03:42:43.322Z,48.73
2018-06-04T03:45:12.119Z,47.98
2018-06-04T03:47:40.525Z,49.08
2018-06-04T03:50:08.942Z,48.55
2018-06-04T03:52:37.368Z,50.67
2018-06-04T03:55:05.772Z,53.33
2018-06-04T03:57:34.207Z,49.63
2018-06-04T04:00:02.636Z,46.68
2018-06-04T04:02:31.083Z,50.12
2018-06-04T04:04:59.506Z,46.35
2018-06-04T04:07:27.908Z,47.67
2018-06-04T04:09:56.349Z,46.70
2018-06-04T04:12:24.764Z,48.33
2018-06-04T04:14:53.187Z,47.62
2018-06-04T04:17:21.317Z,48.02
2018-06-04T04:19:49.732Z,48.20
2018-06-04T04:22:18.162Z,45.17
2018-06-04T04:24:46.608Z,45.78
2018-06-04T04:27:14.705Z,42.03
2018-06-04T04:29:43.110Z,43.55
2018-06-04T04:32:11.544Z,45.38
2018-06-04T04:34:39.963Z,43.48
2018-06-04T04:37:08.373Z,40.55
2018-06-04T04:39:36.808Z,41.10
2018-06-04T04:42:05.202Z,43.50
2018-06-04T04:44:33.648Z,41.45
2018-06-04T04:47:02.081Z,40.98
2018-06-04T04:49:30.527Z,42.62
2018-06-04T04:51:58.934Z,44.85
2018-06-04T04:54:27.347Z,43.73
2018-06-04T04:56:55.749Z,46.40
2018-06-04T04:59:24.179Z,47.50
2018-06-04T05:01:54.165Z,48.40
2018-06-04T05:04:22.607Z,46.63
2018-06-04T05:06:51.016Z,45.15
2018-06-04T05:09:19.431Z,47.35
2018-06-04T05:11:47.853Z,49.13
2018-06-04T05:14:16.266Z,49.77
2018-06-04T05:16:44.697Z,51.25
2018-06-04T05:19:13.088Z,47.95
2018-06-04T05:21:41.499Z,53.50
2018-06-04T05:24:09.916Z,44.85
2018-06-04T05:26:38.323Z,43.17
2018-06-04T05:29:06.937Z,47.13
2018-06-04T05:31:35.359Z,45.67
2018-06-04T05:34:04.760Z,46.37
2018-06-04T05:36:33.223Z,44.05
2018-06-04T05:39:01.633Z,43.48
2018-06-04T05:41:30.092Z,41.18
2018-06-04T05:43:58.519Z,47.27
2018-06-04T05:46:26.951Z,44.63
2018-06-04T05:48:55.354Z,45.58
2018-06-04T05:51:23.804Z,42.35
2018-06-04T05:53:52.253Z,45.20
2018-06-04T05:56:21.200Z,43.52
2018-06-04T05:58:49.614Z,44.03
2018-06-04T06:01:18.019Z,42.20
2018-06-04T06:03:46.434Z,42.17
2018-06-04T06:06:15.003Z,39.83
2018-06-04T06:08:43.668Z,39.67
2018-06-04T06:11:12.131Z,36.42
2018-06-04T06:13:40.538Z,34.60
2018-06-04T06:16:08.942Z,33.98
2018-06-04T06:18:37.348Z,32.03
2018-06-04T06:21:05.767Z,31.37
2018-06-04T06:23:34.206Z,29.42
2018-06-04T06:26:02.724Z,28.42
2018-06-04T06:28:31.151Z,30.15
2018-06-04T06:31:00.620Z,30.55
2018-06-04T06:33:29.058Z,30.23
2018-06-04T06:35:57.458Z,31.80
2018-06-04T06:38:25.891Z,32.20
2018-06-04T06:40:54.311Z,34.67
2018-06-04T06:43:22.710Z,32.98
2018-06-04T06:45:51.118Z,32.40
2018-06-04T06:48:19.551Z,34.30
2018-06-04T06:50:47.974Z,33.13
2018-06-04T06:53:16.739Z,31.87
2018-06-04T06:55:45.192Z,32.35
2018-06-04T06:58:13.591Z,32.33
2018-06-04T07:00:42.002Z,31.40
2018-06-04T07:03:10.115Z,31.77
2018-06-04T07:05:38.515Z,29.77
2018-06-04T07:08:06.964Z,31.15
2018-06-04T07:10:36.030Z,30.02
2018-06-04T07:13:04.461Z,29.87
2018-06-04T07:15:32.900Z,29.77
2018-06-04T07:18:01.320Z,31.05
2018-06-04T07:20:29.719Z,30.30
2018-06-04T07:22:58.131Z,31.52
2018-06-04T07:25:26.559Z,34.75
2018-06-04T07:27:54.969Z,33.25
2018-06-04T07:30:23.384Z,35.75
2018-06-04T07:32:51.823Z,36.03
2018-06-04T07:35:20.227Z,36.77
2018-06-04T07:37:48.635Z,36.13
2018-06-04T07:40:17.062Z,35.88
2018-06-04T07:42:45.854Z,36.40
2018-06-04T07:45:14.296Z,36.33
2018-06-04T07:47:43.559Z,36.50
2018-06-04T07:50:15.872Z,34.40
2018-06-04T07:52:44.511Z,33.55
2018-06-04T07:55:12.923Z,34.38
2018-06-04T07:57:41.950Z,34.33
2018-06-04T08:00:10.373Z,31.85
2018-06-04T08:02:38.768Z,32.67
2018-06-04T08:05:07.175Z,33.48
2018-06-04T08:07:35.778Z,32.15
2018-06-04T08:10:04.846Z,31.90
2018-06-04T08:12:33.287Z,30.35
2018-06-04T08:15:01.699Z,30.72
2018-06-04T08:17:30.119Z,30.17
2018-06-04T08:19:58.550Z,29.40
2018-06-04T08:22:26.973Z,30.08
2018-06-04T08:24:55.375Z,29.00
2018-06-04T08:27:23.809Z,29.35
2018-06-04T08:29:52.237Z,29.25
2018-06-04T08:32:20.655Z,30.68
2018-06-04T08:34:49.060Z,29.12
2018-06-04T08:37:17.488Z,27.55
2018-06-04T08:39:46.286Z,25.97
2018-06-04T08:42:14.699Z,26.00
2018-06-04T08:44:43.837Z,26.70
2018-06-04T08:47:12.264Z,27.52
2018-06-04T08:49:40.707Z,25.97
2018-06-04T08:52:09.663Z,26.23
2018-06-04T08:54:38.086Z,28.57
2018-06-04T08:57:06.512Z,30.02
2018-06-04T08:59:34.919Z,31.80
2018-06-04T09:02:03.340Z,31.93
2018-06-04T09:04:31.748Z,30.08
2018-06-04T09:07:00.139Z,34.45
2018-06-04T09:09:28.535Z,32.50
2018-06-04T09:11:57.376Z,33.70
2018-06-04T09:14:25.796Z,31.25
2018-06-04T09:16:54.224Z,32.20
2018-06-04T09:19:22.651Z,31.82
2018-06-04T09:21:50.757Z,31.80
2018-06-04T09:24:19.183Z,29.50
2018-06-04T09:26:47.643Z,26.82
2018-06-04T09:29:16.054Z,27.60
2018-06-04T09:31:44.454Z,26.75
2018-06-04T09:34:12.854Z,26.15
2018-06-04T09:36:41.282Z,26.82
2018-06-04T09:39:10.687Z,26.40
2018-06-04T09:41:39.075Z,24.43
2018-06-04T09:44:07.487Z,25.95
2018-06-04T09:46:35.610Z,22.27
2018-06-04T09:49:04.016Z,22.35
2018-06-04T09:51:32.457Z,22.77
2018-06-04T09:54:00.897Z,22.55
2018-06-04T09:56:29.006Z,20.70
2018-06-04T09:58:57.410Z,21.37
2018-06-04T10:01:25.824Z,29.55
2018-06-04T10:03:54.246Z,31.15
2018-06-04T10:06:22.648Z,34.35
2018-06-04T10:08:51.075Z,31.95
2018-06-04T10:11:19.491Z,32.25
2018-06-04T10:13:47.921Z,29.70
2018-06-04T10:16:16.348Z,34.03
2018-06-04T10:18:44.792Z,33.50
2018-06-04T10:21:13.204Z,34.40
2018-06-04T10:23:41.611Z,35.70
2018-06-04T10:26:10.015Z,37.90
2018-06-04T10:28:38.479Z,35.10
2018-06-04T10:31:06.930Z,35.48
2018-06-04T10:33:35.348Z,37.55
2018-06-04T10:36:03.771Z,34.98
2018-06-04T10:38:32.166Z,35.73
2018-06-04T10:41:00.583Z,33.50
2018-06-04T10:43:28.987Z,34.85
2018-06-04T10:45:57.419Z,34.50
2018-06-04T10:48:26.072Z,34.78
2018-06-04T10:50:55.439Z,35.33
2018-06-04T10:53:23.863Z,34.58
2018-06-04T10:55:52.270Z,33.65
2018-06-04T10:58:20.728Z,33.38
2018-06-04T11:00:49.691Z,32.67
2018-06-04T11:03:18.105Z,33.75
2018-06-04T11:05:46.508Z,33.20
2018-06-04T11:08:14.940Z,31.95
2018-06-04T11:10:43.365Z,33.73
2018-06-04T11:13:11.782Z,35.10
2018-06-04T11:15:40.191Z,35.20
2018-06-04T11:18:08.586Z,33.28
2018-06-04T11:20:37.011Z,34.75
2018-06-04T11:23:05.411Z,32.58
2018-06-04T11:25:33.831Z,33.08
2018-06-04T11:28:02.252Z,28.30
2018-06-04T11:30:30.796Z,31.37
2018-06-04T11:32:59.112Z,29.30
2018-06-04T11:35:28.357Z,28.67
2018-06-04T11:37:56.778Z,23.87
2018-06-04T11:40:25.194Z,28.52
2018-06-04T11:42:53.610Z,29.00
2018-06-04T11:45:22.019Z,29.75
2018-06-04T11:47:50.423Z,31.75
2018-06-04T11:50:18.828Z,31.33
2018-06-04T11:52:47.238Z,30.65
2018-06-04T11:55:15.647Z,29.27
2018-06-04T11:57:44.046Z,32.30
2018-06-04T12:00:12.442Z,30.92
2018-06-04T12:02:40.853Z,31.07
2018-06-04T12:05:09.306Z,28.75
2018-06-04T12:07:37.694Z,30.20
2018-06-04T12:10:06.114Z,29.10
2018-06-04T12:12:34.514Z,34.03
2018-06-04T12:15:02.931Z,32.38
2018-06-04T12:17:31.388Z,32.55
2018-06-04T12:19:59.791Z,29.07
2018-06-04T12:22:28.210Z,31.07
2018-06-04T12:24:56.615Z,31.48
2018-06-04T12:27:25.114Z,31.33
2018-06-04T12:29:53.536Z,30.08
2018-06-04T12:32:21.967Z,32.05
2018-06-04T12:34:50.380Z,31.35
2018-06-04T12:37:18.808Z,29.18
2018-06-04T12:39:47.283Z,28.45
2018-06-04T12:42:15.706Z,29.90
2018-06-04T12:44:44.119Z,29.40
2018-06-04T12:47:12.520Z,28.55
2018-06-04T12:49:42.083Z,31.85
2018-06-04T12:52:10.923Z,28.87
2018-06-04T12:54:39.334Z,29.87
2018-06-04T12:57:07.760Z,28.73
2018-06-04T12:59:36.198Z,28.23
2018-06-04T13:02:04.610Z,32.23
2018-06-04T13:04:33.026Z,31.55
2018-06-04T13:07:01.416Z,29.12
2018-06-04T13:09:29.822Z,28.85
2018-06-04T13:11:58.241Z,29.98
2018-06-04T13:14:26.707Z,28.15
2018-06-04T13:16:55.114Z,37.05
2018-06-04T13:19:24.454Z,29.52
2018-06-04T13:21:52.851Z,29.25
2018-06-04T13:24:21.257Z,32.08
2018-06-04T13:26:49.663Z,31.87
2018-06-04T13:29:18.125Z,32.13
2018-06-04T13:31:46.542Z,33.88
2018-06-04T13:34:15.044Z,32.63
2018-06-04T13:36:43.443Z,31.93
2018-06-04T13:39:11.888Z,33.23
2018-06-04T13:41:40.290Z,34.67
2018-06-04T13:44:08.688Z,31.05
2018-06-04T13:46:37.116Z,35.08
2018-06-04T13:49:05.541Z,31.80
2018-06-04T13:51:33.966Z,31.25
2018-06-04T13:54:02.370Z,31.70
2018-06-04T13:56:31.340Z,27.82
2018-06-04T13:58:59.768Z,27.20
2018-06-04T14:01:28.438Z,31.57
2018-06-04T14:03:56.842Z,28.85
2018-06-04T14:06:25.242Z,26.62
2018-06-04T14:08:54.611Z,26.20
2018-06-04T14:11:23.031Z,28.02
2018-06-04T14:13:51.434Z,24.30
2018-06-04T14:16:19.842Z,30.52
2018-06-04T14:18:48.247Z,25.12
2018-06-04T14:21:16.675Z,26.20
2018-06-04T14:23:45.076Z,28.07
2018-06-04T14:26:13.521Z,23.35
2018-06-04T14:28:42.364Z,23.35
2018-06-04T14:31:10.782Z,24.37
2018-06-04T14:33:39.236Z,21.62
2018-06-04T14:36:07.631Z,22.82
2018-06-04T14:38:36.033Z,24.35
2018-06-04T14:41:04.447Z,30.23
2018-06-04T14:43:32.866Z,23.27
2018-06-04T14:46:01.279Z,21.27
2018-06-04T14:48:29.930Z,21.57
2018-06-04T14:50:59.297Z,21.37
2018-06-04T14:53:27.707Z,23.70
2018-06-04T14:55:56.117Z,19.90
2018-06-04T14:58:24.510Z,15.58
2018-06-04T15:00:52.943Z,16.05
2018-06-04T15:03:21.358Z,18.10
2018-06-04T15:05:49.806Z,17.87
2018-06-04T15:08:18.266Z,17.25
2018-06-04T15:10:46.703Z,16.07
2018-06-04T15:13:15.126Z,15.98
2018-06-04T15:15:43.526Z,16.50
2018-06-04T15:18:11.955Z,15.88
2018-06-04T15:20:40.382Z,20.15
2018-06-04T15:23:09.074Z,19.65
2018-06-04T15:25:37.469Z,17.67
2018-06-04T15:28:06.030Z,18.20
2018-06-04T15:30:34.430Z,18.57
2018-06-04T15:33:03.247Z,18.35
2018-06-04T15:35:32.041Z,18.07
2018-06-04T15:38:00.796Z,19.48
2018-06-04T15:40:29.620Z,17.55
2018-06-04T15:42:58.529Z,20.82
2018-06-04T15:45:27.239Z,15.08
2018-06-04T15:47:55.886Z,17.05
2018-06-04T15:50:24.686Z,20.85
2018-06-04T15:52:54.929Z,15.90
2018-06-04T15:55:23.323Z,19.37
2018-06-04T15:57:51.725Z,22.85
2018-06-04T16:00:20.125Z,17.42
2018-06-04T16:02:48.610Z,17.80
2018-06-04T16:05:17.289Z,20.17
2018-06-04T16:07:46.559Z,17.35
2018-06-04T16:10:15.569Z,19.85
2018-06-04T16:12:44.011Z,17.57
2018-06-04T16:15:12.949Z,18.07
2018-06-04T16:17:41.349Z,21.90
2018-06-04T16:20:09.767Z,19.10
2018-06-04T16:22:37.873Z,17.48
2018-06-04T16:25:06.292Z,17.48
2018-06-04T16:27:34.718Z,19.02
2018-06-04T16:30:03.135Z,16.50
2018-06-04T16:32:31.719Z,17.62
2018-06-04T16:35:00.116Z,17.37
2018-06-04T16:37:28.593Z,16.50
2018-06-04T16:39:56.969Z,18.20
2018-06-04T16:42:25.378Z,17.30
2018-06-04T16:44:53.811Z,17.25
2018-06-04T16:47:22.227Z,17.73
2018-06-04T16:49:50.644Z,17.57
2018-06-04T16:52:19.129Z,17.52
2018-06-04T16:54:47.529Z,18.42
2018-06-04T16:57:16.342Z,17.67
2018-06-04T16:59:44.756Z,18.37
2018-06-04T17:02:13.183Z,17.05
2018-06-04T17:04:41.772Z,18.48
2018-06-04T17:07:10.453Z,17.45
2018-06-04T17:09:38.906Z,16.65
2018-06-04T17:12:07.361Z,18.15
2018-06-04T17:14:35.786Z,16.65
2018-06-04T17:17:04.902Z,17.98
2018-06-04T17:19:33.322Z,18.48
2018-06-04T17:22:01.742Z,19.95
2018-06-04T17:24:30.150Z,17.32
2018-06-04T17:26:58.558Z,18.57
2018-06-04T17:29:26.970Z,16.60
2018-06-04T17:31:55.402Z,18.00
2018-06-04T17:34:24.035Z,17.00
2018-06-04T17:36:52.443Z,18.10
2018-06-04T17:39:20.837Z,17.30
2018-06-04T17:41:49.243Z,16.02
2018-06-04T17:44:17.635Z,18.10
2018-06-04T17:46:46.038Z,17.67
2018-06-04T17:49:14.450Z,15.85
2018-06-04T17:51:42.884Z,18.42
2018-06-04T17:54:11.440Z,17.17
2018-06-04T17:56:39.860Z,16.32
2018-06-04T17:59:08.261Z,17.40
2018-06-04T18:01:36.682Z,17.60
2018-06-04T18:04:05.232Z,17.85
2018-06-04T18:06:33.658Z,18.10
2018-06-04T18:09:02.067Z,18.25
2018-06-04T18:11:30.458Z,17.90
2018-06-04T18:13:58.883Z,16.52
2018-06-04T18:16:27.278Z,17.50
2018-06-04T18:18:55.665Z,16.97
2018-06-04T18:21:24.219Z,16.42
2018-06-04T18:23:52.642Z,16.75
2018-06-04T18:26:21.078Z,15.10
2018-06-04T18:28:49.487Z,17.12
2018-06-04T18:31:18.011Z,15.88
2018-06-04T18:33:46.423Z,15.25
2018-06-04T18:36:14.816Z,14.53
2018-06-04T18:38:43.226Z,16.87
2018-06-04T18:41:11.635Z,15.55
2018-06-04T18:43:40.052Z,15.60
2018-06-04T18:46:08.456Z,15.13
2018-06-04T18:48:36.883Z,16.77
2018-06-04T18:51:05.302Z,13.65
2018-06-04T18:53:33.730Z,14.43
2018-06-04T18:56:02.163Z,15.53
2018-06-04T18:58:30.587Z,15.43
2018-06-04T19:00:58.999Z,14.83
2018-06-04T19:03:27.412Z,14.38
2018-06-04T19:05:55.822Z,14.95
2018-06-04T19:08:24.224Z,13.93
2018-06-04T19:10:52.655Z,15.85
2018-06-04T19:13:21.100Z,15.10
2018-06-04T19:15:49.578Z,14.68
2018-06-04T19:18:18.017Z,16.32
2018-06-04T19:20:46.438Z,15.95
2018-06-04T19:23:14.881Z,15.25
2018-06-04T19:25:43.295Z,14.75
2018-06-04T19:28:11.710Z,15.98
2018-06-04T19:30:41.522Z,15.98
2018-06-04T19:33:09.986Z,15.40
2018-06-04T19:35:38.486Z,14.83
2018-06-04T19:38:06.939Z,15.30
2018-06-04T19:40:35.618Z,15.53
2018-06-04T19:43:04.007Z,15.78
2018-06-04T19:45:34.162Z,15.40
2018-06-04T19:48:02.576Z,17.60
2018-06-04T19:50:31.099Z,16.45
2018-06-04T19:53:00.702Z,16.20
2018-06-04T19:55:30.384Z,17.07
2018-06-04T19:57:58.820Z,17.17
2018-06-04T20:00:27.223Z,16.82
2018-06-04T20:02:55.625Z,17.52
2018-06-04T20:05:24.047Z,18.25
2018-06-04T20:07:52.473Z,18.48
2018-06-04T20:10:21.115Z,19.05
2018-06-04T20:12:49.528Z,18.52
2018-06-04T20:15:17.930Z,18.27
2018-06-04T20:17:46.386Z,18.65
2018-06-04T20:20:14.803Z,18.92
2018-06-04T20:22:43.208Z,19.55
2018-06-04T20:25:11.627Z,19.32
2018-06-04T20:27:40.062Z,19.35
2018-06-04T20:30:08.470Z,20.77
2018-06-04T20:32:36.882Z,20.77
2018-06-04T20:35:05.310Z,20.72
2018-06-04T20:37:33.721Z,19.25
2018-06-04T20:40:02.139Z,20.92
2018-06-04T20:42:30.564Z,20.50
2018-06-04T20:44:59.947Z,21.42
2018-06-04T20:47:28.371Z,22.82
2018-06-04T20:49:56.791Z,21.93
2018-06-04T20:52:25.202Z,22.67
2018-06-04T20:54:53.603Z,21.40
2018-06-04T20:57:22.004Z,22.37
2018-06-04T20:59:50.426Z,21.40
2018-06-04T21:02:18.850Z,22.13
2018-06-04T21:04:48.807Z,23.45
2018-06-04T21:07:17.207Z,23.40
2018-06-04T21:09:45.625Z,26.07
2018-06-04T21:12:14.028Z,28.87
2018-06-04T21:14:42.456Z,29.00
2018-06-04T21:17:10.867Z,33.40
2018-06-04T21:19:39.337Z,30.20
2018-06-04T21:22:07.732Z,31.12
2018-06-04T21:24:36.163Z,32.80
2018-06-04T21:27:04.587Z,31.62
2018-06-04T21:29:33.039Z,33.05
2018-06-04T21:32:01.502Z,30.57
2018-06-04T21:34:31.403Z,31.25
2018-06-04T21:36:59.922Z,30.75
2018-06-04T21:39:28.328Z,33.38
2018-06-04T21:41:56.730Z,38.00
2018-06-04T21:44:25.178Z,38.30
2018-06-04T21:46:53.582Z,40.45
2018-06-04T21:49:21.990Z,42.95
2018-06-04T21:51:50.387Z,44.10
2018-06-04T21:54:18.821Z,45.45
2018-06-04T21:56:47.252Z,45.30
2018-06-04T21:59:15.655Z,48.13
2018-06-04T22:01:44.055Z,46.08
2018-06-04T22:04:12.458Z,48.92
2018-06-04T22:06:40.894Z,51.10
2018-06-04T22:09:09.338Z,47.95
2018-06-04T22:11:37.729Z,51.85
2018-06-04T22:14:06.212Z,57.15
2018-06-04T22:16:34.631Z,54.93
2018-06-04T22:19:03.023Z,54.55
2018-06-04T22:21:31.440Z,58.68
2018-06-04T22:23:59.899Z,57.15
2018-06-04T22:26:28.290Z,54.73
2018-06-04T22:28:56.723Z,59.13
2018-06-04T22:31:25.150Z,53.08
2018-06-04T22:33:53.571Z,52.58
2018-06-04T22:36:21.982Z,50.75
2018-06-04T22:38:51.042Z,51.05
2018-06-04T22:41:19.503Z,53.75
2018-06-04T22:43:48.749Z,54.95
2018-06-04T22:46:17.158Z,51.70
2018-06-04T22:48:45.582Z,53.85
2018-06-04T22:51:14.006Z,49.75
2018-06-04T22:53:42.600Z,49.50
2018-06-04T22:56:11.019Z,51.33
2018-06-04T22:58:39.460Z,57.23
2018-06-04T23:01:08.200Z,52.70
2018-06-04T23:03:36.620Z,53.40
2018-06-04T23:06:05.027Z,56.83
2018-06-04T23:08:33.447Z,53.87
2018-06-04T23:11:01.562Z,56.83
2018-06-04T23:13:30.007Z,55.65
2018-06-04T23:15:58.426Z,54.75
2018-06-04T23:18:26.827Z,60.50
2018-06-04T23:20:55.622Z,58.02
2018-06-04T23:23:24.044Z,58.58
2018-06-04T23:25:53.663Z,66.20
2018-06-04T23:28:22.099Z,68.65
2018-06-04T23:30:51.080Z,68.25
2018-06-04T23:33:19.503Z,72.17
2018-06-04T23:35:47.915Z,71.90
2018-06-04T23:38:16.318Z,78.33
2018-06-04T23:40:44.749Z,71.62
2018-06-04T23:43:12.862Z,73.83
2018-06-04T23:45:41.328Z,73.95
2018-06-04T23:48:09.739Z,76.10
2018-06-04T23:50:38.153Z,66.92
2018-06-04T23:53:06.282Z,62.83
2018-06-04T23:55:34.695Z,59.48
2018-06-04T23:58:03.107Z,59.95
